Time;durP1;ratioP1;P1;durP2;ratioP2;P2;SDS_P1;SDS_P2;PMS_P1;PMS_P2;Temp;Humidity;BMP_temperature;BMP_pressure;BME280_temperature;BME280_humidity;BME280_pressure;Samples;Min_cycle;Max_cycle;Signal;HPM_P1;HPM_P2
2023/02/11 00:01:36;;;;;;;46.13;27.85;;;;;;;4.17;100.00;102692.69;5030332;28;20022;-73
2023/02/11 00:04:02;;;;;;;45.53;28.58;;;;;;;4.16;100.00;102685.50;5057584;28;20023;-73
2023/02/11 00:06:28;;;;;;;48.30;27.25;;;;;;;4.14;100.00;102678.47;5035355;28;20030;-73
2023/02/11 00:08:54;;;;;;;46.08;28.13;;;;;;;4.10;100.00;102675.28;5045362;28;20067;-73
2023/02/11 00:11:20;;;;;;;44.58;27.70;;;;;;;4.07;100.00;102686.69;5002201;28;20041;-73
2023/02/11 00:13:46;;;;;;;45.95;27.95;;;;;;;4.05;100.00;102676.94;5034911;28;20041;-73
2023/02/11 00:16:17;;;;;;;54.08;29.05;;;;;;;4.01;100.00;102685.56;5021698;28;20033;-73
2023/02/11 00:18:43;;;;;;;51.97;30.73;;;;;;;3.98;100.00;102687.84;5047928;28;20629;-73
2023/02/11 00:21:10;;;;;;;48.90;30.05;;;;;;;3.95;100.00;102682.75;5022449;28;20084;-73
2023/02/11 00:23:35;;;;;;;49.72;29.60;;;;;;;3.87;100.00;102683.72;5018417;28;20026;-73
2023/02/11 00:26:01;;;;;;;51.90;31.42;;;;;;;3.88;100.00;102681.84;5035021;28;20032;-73
2023/02/11 00:28:26;;;;;;;54.88;30.55;;;;;;;3.83;100.00;102678.84;5029851;28;20091;-73
2023/02/11 00:30:58;;;;;;;47.83;30.83;;;;;;;3.80;100.00;102672.66;5001641;28;20029;-73
2023/02/11 00:33:23;;;;;;;48.13;28.23;;;;;;;3.78;100.00;102676.66;5004125;28;20398;-73
2023/02/11 00:35:49;;;;;;;49.47;29.88;;;;;;;3.77;100.00;102672.22;4996422;28;20034;-73
2023/02/11 00:38:14;;;;;;;45.58;29.90;;;;;;;3.69;100.00;102666.84;5019931;28;20037;-73
2023/02/11 00:40:40;;;;;;;48.17;27.80;;;;;;;3.63;100.00;102671.22;5029694;28;20099;-73
2023/02/11 00:43:05;;;;;;;50.30;29.33;;;;;;;3.60;100.00;102671.63;5031012;28;20025;-73
2023/02/11 00:45:31;;;;;;;46.22;27.67;;;;;;;3.53;100.00;102665.19;5023175;28;20034;-72
2023/02/11 00:47:56;;;;;;;46.88;27.88;;;;;;;3.52;100.00;102667.09;5029510;28;20527;-73
2023/02/11 00:50:21;;;;;;;45.63;28.40;;;;;;;3.49;100.00;102677.63;5042595;28;20036;-73
2023/02/11 00:52:47;;;;;;;47.15;28.65;;;;;;;3.42;100.00;102672.03;5021030;28;20029;-72
2023/02/11 00:55:13;;;;;;;44.17;27.98;;;;;;;3.35;100.00;102674.72;5011685;28;20072;-73
2023/02/11 00:57:38;;;;;;;45.63;27.45;;;;;;;3.31;100.00;102670.66;5004005;28;20517;-72
2023/02/11 01:00:04;;;;;;;50.88;28.58;;;;;;;3.27;100.00;102669.34;5017504;28;20033;-73
2023/02/11 01:02:30;;;;;;;46.90;27.92;;;;;;;3.24;100.00;102666.13;5017765;28;20029;-72
2023/02/11 01:04:55;;;;;;;44.42;26.45;;;;;;;3.20;100.00;102662.91;5043771;28;20053;-73
2023/02/11 01:07:21;;;;;;;45.33;27.15;;;;;;;3.14;100.00;102664.53;5000822;28;20063;-72
2023/02/11 01:09:46;;;;;;;45.53;27.23;;;;;;;3.15;100.00;102662.66;5017623;28;20037;-73
2023/02/11 01:12:12;;;;;;;47.75;28.30;;;;;;;3.08;100.00;102659.81;5030442;28;20121;-72
2023/02/11 01:14:37;;;;;;;47.78;28.58;;;;;;;3.06;100.00;102661.03;5020812;28;20033;-72
2023/02/11 01:17:04;;;;;;;41.80;26.27;;;;;;;3.00;100.00;102654.44;5047468;28;20029;-73
2023/02/11 01:19:30;;;;;;;45.28;27.58;;;;;;;2.97;100.00;102663.03;5017770;28;20108;-72
2023/02/11 01:21:55;;;;;;;42.47;26.92;;;;;;;2.95;100.00;102651.41;5017602;28;20026;-73
2023/02/11 01:24:21;;;;;;;48.00;27.85;;;;;;;2.87;100.00;102652.38;5034016;28;20095;-73
2023/02/11 01:26:46;;;;;;;50.33;29.52;;;;;;;2.84;100.00;102651.88;5017497;28;20037;-73
2023/02/11 01:29:12;;;;;;;43.47;27.65;;;;;;;2.80;100.00;102651.41;5017287;28;20025;-73
2023/02/11 01:31:37;;;;;;;46.42;27.38;;;;;;;2.77;100.00;102651.81;5033958;28;20029;-73
2023/02/11 01:34:03;;;;;;;46.30;27.48;;;;;;;2.74;100.00;102654.09;5021753;28;20544;-73
2023/02/11 01:36:28;;;;;;;43.40;27.05;;;;;;;2.73;100.00;102657.84;5044371;28;20033;-73
2023/02/11 01:38:53;;;;;;;48.45;28.25;;;;;;;2.66;100.00;102658.63;5029653;28;20037;-73
2023/02/11 01:41:19;;;;;;;45.85;27.58;;;;;;;2.62;100.00;102659.19;5037284;28;20030;-73
2023/02/11 01:43:47;;;;;;;44.83;26.77;;;;;;;2.63;100.00;102649.91;5017303;28;20025;-73
2023/02/11 01:46:32;;;;;;;43.17;26.67;;;;;;;2.61;100.00;102657.47;5019022;28;20068;-72
2023/02/11 01:49:00;;;;;;;43.97;26.73;;;;;;;2.57;100.00;102650.69;5011293;28;20116;-72
2023/02/11 01:51:47;;;;;;;43.90;27.15;;;;;;;2.54;100.00;102651.91;5036914;28;20061;-72
2023/02/11 02:00:00;;;;;;;43.55;26.48;;;;;;;2.45;100.00;102650.28;5046169;28;20033;-72
2023/02/11 02:02:31;;;;;;;44.97;26.20;;;;;;;2.41;100.00;102649.81;5020232;28;20033;-73
2023/02/11 02:05:09;;;;;;;44.67;26.48;;;;;;;2.41;100.00;102657.19;5035191;28;20025;-72
2023/02/11 02:07:59;;;;;;;42.65;25.63;;;;;;;2.36;100.00;102644.03;5018827;28;20033;-72
2023/02/11 02:10:25;;;;;;;45.80;25.98;;;;;;;2.34;100.00;102640.63;5050826;28;20049;-73
2023/02/11 02:12:50;;;;;;;43.05;26.92;;;;;;;2.32;100.00;102639.97;5009014;28;20025;-72
2023/02/11 02:15:23;;;;;;;43.30;26.33;;;;;;;2.25;100.00;102636.25;5023741;28;20036;-73
2023/02/11 02:17:56;;;;;;;43.75;27.10;;;;;;;2.23;100.00;102643.84;5047189;28;20107;-72
2023/02/11 02:20:40;;;;;;;47.65;27.48;;;;;;;2.18;100.00;102635.31;5045271;28;20711;-73
2023/02/11 02:23:17;;;;;;;40.13;24.92;;;;;;;2.18;100.00;102638.06;5038388;28;20029;-73
2023/02/11 02:25:49;;;;;;;41.38;24.90;;;;;;;2.11;100.00;102635.19;5019155;28;20457;-72
2023/02/11 02:28:26;;;;;;;39.80;25.30;;;;;;;2.11;100.00;102635.19;5049843;28;20033;-73
2023/02/11 02:31:13;;;;;;;42.15;25.50;;;;;;;2.08;100.00;102629.25;5027742;28;20120;-72
2023/02/11 02:33:44;;;;;;;41.45;25.58;;;;;;;2.06;100.00;102623.94;5039588;28;20114;-73
2023/02/11 02:36:21;;;;;;;43.25;25.70;;;;;;;2.02;100.00;102619.88;4995795;28;20025;-73
2023/02/11 02:38:50;;;;;;;41.22;24.55;;;;;;;2.03;100.00;102629.78;5052633;28;20045;-72
2023/02/11 02:41:16;;;;;;;42.50;25.80;;;;;;;1.96;100.00;102621.47;5029540;28;20646;-72
2023/02/11 02:43:48;;;;;;;38.28;24.67;;;;;;;1.97;100.00;102623.16;5039387;28;20562;-73
2023/02/11 02:46:15;;;;;;;38.65;24.38;;;;;;;1.89;100.00;102625.97;5003998;28;20025;-72
2023/02/11 02:48:40;;;;;;;40.90;24.63;;;;;;;1.86;100.00;102620.84;5032505;28;20029;-73
2023/02/11 02:51:10;;;;;;;40.70;25.77;;;;;;;1.86;100.00;102620.00;5000765;28;20079;-72
2023/02/11 02:53:35;;;;;;;39.47;23.85;;;;;;;1.83;100.00;102626.72;5029845;28;20039;-73
2023/02/11 02:56:09;;;;;;;36.75;23.27;;;;;;;1.82;100.00;102615.94;5051359;28;20576;-73
2023/02/11 02:59:02;;;;;;;36.50;23.65;;;;;;;1.74;100.00;102611.38;5030422;28;20386;-73
2023/02/11 03:01:37;;;;;;;;;;;;;;;1.72;100.00;102611.56;5036620;28;20032;-73
2023/02/11 03:04:12;;;;;;;37.78;23.98;;;;;;;1.67;100.00;102604.94;5049017;28;19931;-73
2023/02/11 03:06:46;;;;;;;35.20;22.80;;;;;;;1.64;100.00;102600.66;5031028;28;20497;-72
2023/02/11 03:09:14;;;;;;;36.67;23.15;;;;;;;1.61;100.00;102595.56;5037058;28;20083;-73
2023/02/11 03:11:39;;;;;;;35.38;21.85;;;;;;;1.62;100.00;102591.81;5036474;28;20026;-73
2023/02/11 03:14:07;;;;;;;34.78;22.10;;;;;;;1.59;100.00;102602.25;5023250;28;20040;-73
2023/02/11 03:16:37;;;;;;;33.00;21.33;;;;;;;1.56;100.00;102598.88;5039909;28;20036;-73
2023/02/11 03:19:07;;;;;;;34.75;22.45;;;;;;;1.55;100.00;102597.16;5024417;28;20025;-73
2023/02/11 03:21:33;;;;;;;30.77;20.30;;;;;;;1.54;100.00;102595.44;5029034;28;20021;-73
2023/02/11 03:24:04;;;;;;;30.92;20.85;;;;;;;1.51;100.00;102595.81;5036128;28;20049;-73
2023/02/11 03:26:37;;;;;;;34.58;21.83;;;;;;;1.49;100.00;102592.41;5019921;28;20088;-73
2023/02/11 03:29:15;;;;;;;28.83;19.45;;;;;;;1.44;100.00;102583.88;5032401;28;20052;-73
2023/02/11 03:31:46;;;;;;;30.38;19.15;;;;;;;1.41;100.00;102580.66;5015680;28;20033;-73
2023/02/11 03:34:15;;;;;;;28.02;18.77;;;;;;;1.44;100.00;102589.34;5031033;28;20034;-73
2023/02/11 03:36:47;;;;;;;28.85;20.10;;;;;;;1.40;100.00;102585.31;5019641;28;20029;-73
2023/02/11 03:39:20;;;;;;;27.30;20.02;;;;;;;1.42;100.00;102575.03;5019142;28;20058;-73
2023/02/11 03:41:45;;;;;;;31.70;20.98;;;;;;;1.40;100.00;102581.72;5027579;28;20025;-72
2023/02/11 03:44:11;;;;;;;26.77;19.80;;;;;;;1.37;100.00;102579.34;5039884;28;20044;-73
2023/02/11 03:46:37;;;;;;;28.42;19.85;;;;;;;1.34;100.00;102575.94;5035390;28;20031;-73
2023/02/11 03:49:06;;;;;;;29.67;20.00;;;;;;;1.33;100.00;102567.88;5019112;28;20036;-73
2023/02/11 03:51:31;;;;;;;30.42;19.08;;;;;;;1.34;100.00;102564.97;5032915;28;20442;-72
2023/02/11 03:53:57;;;;;;;27.80;19.98;;;;;;;1.29;100.00;102569.28;5020065;28;20064;-72
2023/02/11 03:56:24;;;;;;;26.45;19.10;;;;;;;1.24;100.00;102563.50;5031870;28;20087;-72
2023/02/11 03:58:49;;;;;;;27.30;18.27;;;;;;;1.19;100.00;102564.03;5031029;28;20041;-72
2023/02/11 04:01:15;;;;;;;26.77;19.00;;;;;;;1.20;100.00;102565.78;5030372;28;20025;-72
2023/02/11 04:03:41;;;;;;;28.08;19.67;;;;;;;1.12;100.00;102563.09;5001412;28;20041;-72
2023/02/11 04:06:06;;;;;;;28.15;19.23;;;;;;;1.11;100.00;102573.19;5018798;28;20048;-72
2023/02/11 04:08:32;;;;;;;28.95;19.25;;;;;;;1.10;100.00;102563.25;5035136;28;20033;-72
2023/02/11 04:10:58;;;;;;;28.38;19.70;;;;;;;1.05;100.00;102562.94;5035015;28;20056;-72
2023/02/11 04:13:23;;;;;;;27.25;19.38;;;;;;;1.09;100.00;102563.44;5020758;28;20437;-73
2023/02/11 04:15:49;;;;;;;27.30;19.67;;;;;;;1.00;100.00;102559.88;5034897;28;20061;-73
2023/02/11 04:18:14;;;;;;;27.10;18.88;;;;;;;0.98;100.00;102561.13;5002211;28;20056;-72
2023/02/11 04:20:40;;;;;;;27.83;19.00;;;;;;;0.97;100.00;102562.13;5022141;28;20422;-73
2023/02/11 04:23:05;;;;;;;27.42;19.15;;;;;;;0.96;100.00;102564.03;5011695;28;20033;-73
2023/02/11 04:25:30;;;;;;;27.48;18.75;;;;;;;0.91;100.00;102560.13;5064950;28;20029;-73
2023/02/11 04:27:56;;;;;;;29.35;18.48;;;;;;;0.87;100.00;102555.03;5018304;28;20506;-72
2023/02/11 04:30:21;;;;;;;26.60;18.25;;;;;;;0.85;100.00;102550.75;4987484;28;20033;-72
2023/02/11 04:32:47;;;;;;;27.20;19.17;;;;;;;0.82;100.00;102546.50;5012028;28;20066;-72
2023/02/11 04:35:13;;;;;;;28.60;18.95;;;;;;;0.83;100.00;102542.72;5034082;28;20042;-72
2023/02/11 04:37:38;;;;;;;25.55;18.95;;;;;;;0.79;100.00;102543.28;5034570;28;20032;-72
2023/02/11 04:40:04;;;;;;;26.83;19.23;;;;;;;0.75;100.00;102552.84;5034736;28;20080;-72
2023/02/11 04:42:30;;;;;;;29.80;19.50;;;;;;;0.70;100.00;102547.06;5013135;28;20099;-72
2023/02/11 04:44:55;;;;;;;29.02;18.70;;;;;;;0.68;100.00;102544.53;5017663;28;20068;-73
2023/02/11 04:47:21;;;;;;;29.40;19.58;;;;;;;0.64;100.00;102549.50;5045585;28;20500;-72
2023/02/11 04:49:46;;;;;;;28.10;18.73;;;;;;;0.57;100.00;102551.25;5013554;28;20029;-72
2023/02/11 04:52:11;;;;;;;29.50;19.85;;;;;;;0.56;100.00;102549.56;5027238;28;20025;-72
2023/02/11 04:54:37;;;;;;;27.70;19.25;;;;;;;0.55;100.00;102550.56;5033118;28;20029;-72
2023/02/11 04:57:03;;;;;;;28.35;18.98;;;;;;;0.52;100.00;102553.66;5001766;28;20048;-72
2023/02/11 04:59:28;;;;;;;30.13;20.23;;;;;;;0.48;100.00;102549.59;5018654;28;20040;-72
2023/02/11 05:01:54;;;;;;;31.05;20.02;;;;;;;0.47;100.00;102552.47;5017931;28;20036;-72
2023/02/11 05:04:19;;;;;;;29.15;20.33;;;;;;;0.40;100.00;102552.34;5034217;28;20044;-72
2023/02/11 05:06:44;;;;;;;29.30;20.65;;;;;;;0.40;100.00;102549.63;5034173;28;20033;-72
2023/02/11 05:09:11;;;;;;;31.63;20.73;;;;;;;0.37;100.00;102552.72;5030785;28;20029;-72
2023/02/11 05:11:38;;;;;;;32.67;21.10;;;;;;;0.35;100.00;102555.59;4993038;28;20029;-72
2023/02/11 05:14:04;;;;;;;30.88;21.92;;;;;;;0.28;100.00;102554.63;5030583;28;20029;-72
2023/02/11 05:16:29;;;;;;;31.83;22.67;;;;;;;0.26;100.00;102553.09;5026674;28;20048;-73
2023/02/11 05:18:55;;;;;;;30.55;21.90;;;;;;;0.27;100.00;102550.16;4991557;28;20029;-72
2023/02/11 05:21:21;;;;;;;31.08;22.17;;;;;;;0.22;100.00;102556.19;5017615;28;20033;-72
2023/02/11 05:23:46;;;;;;;34.80;23.17;;;;;;;0.18;100.00;102549.34;5047204;28;20035;-72
2023/02/11 05:26:12;;;;;;;33.90;22.48;;;;;;;0.16;100.00;102548.66;5017471;28;20140;-73
2023/02/11 05:28:38;;;;;;;32.13;23.15;;;;;;;0.13;100.00;102557.19;5033722;28;20029;-72
2023/02/11 05:31:03;;;;;;;34.42;23.60;;;;;;;0.10;100.00;102545.78;5034808;28;20029;-72
2023/02/11 05:33:29;;;;;;;33.03;23.17;;;;;;;0.14;100.00;102547.13;5015711;28;20034;-72
2023/02/11 05:35:59;;;;;;;33.42;23.48;;;;;;;0.09;100.00;102552.28;5044541;28;20033;-72
2023/02/11 05:38:25;;;;;;;33.85;23.23;;;;;;;0.07;100.00;102546.97;5033639;28;20029;-72
2023/02/11 05:40:50;;;;;;;32.63;22.52;;;;;;;0.06;100.00;102545.28;5034202;28;20052;-72
2023/02/11 05:43:16;;;;;;;32.70;22.65;;;;;;;0.01;100.00;102536.75;5017803;28;20021;-72
2023/02/11 05:45:41;;;;;;;31.15;22.10;;;;;;;-0.01;100.00;102542.38;5046105;28;20041;-72
2023/02/11 05:48:06;;;;;;;29.55;20.92;;;;;;;-0.02;100.00;102548.03;5024700;28;20490;-73
2023/02/11 05:50:32;;;;;;;32.20;22.13;;;;;;;-0.02;100.00;102537.09;5022399;28;20037;-72
2023/02/11 05:52:57;;;;;;;30.38;21.92;;;;;;;-0.05;100.00;102530.13;5020682;28;20024;-72
2023/02/11 05:55:23;;;;;;;31.05;21.55;;;;;;;-0.06;100.00;102535.72;5044386;28;20032;-72
2023/02/11 05:57:48;;;;;;;32.80;22.08;;;;;;;-0.07;100.00;102532.16;5037477;28;20033;-73
2023/02/11 06:00:14;;;;;;;31.67;22.65;;;;;;;-0.09;100.00;102539.66;5048710;28;20037;-72
2023/02/11 06:02:39;;;;;;;32.65;22.27;;;;;;;-0.11;100.00;102543.59;5040463;28;20061;-72
2023/02/11 06:05:05;;;;;;;30.88;21.02;;;;;;;-0.13;100.00;102545.66;5037918;28;20033;-72
2023/02/11 06:07:31;;;;;;;30.42;21.30;;;;;;;-0.13;100.00;102541.06;5021067;28;20713;-72
2023/02/11 06:09:56;;;;;;;30.15;21.40;;;;;;;-0.10;100.00;102539.84;5037394;28;20030;-72
2023/02/11 06:12:22;;;;;;;32.35;20.63;;;;;;;-0.14;100.00;102543.94;5021017;28;20026;-73
2023/02/11 06:14:47;;;;;;;30.15;21.20;;;;;;;-0.19;100.00;102540.91;5028724;28;20086;-72
2023/02/11 06:17:13;;;;;;;32.28;22.48;;;;;;;-0.22;100.00;102547.56;5038440;28;20060;-72
2023/02/11 06:19:38;;;;;;;31.25;21.15;;;;;;;-0.21;100.00;102543.81;5049284;28;20045;-72
2023/02/11 06:22:04;;;;;;;35.25;23.50;;;;;;;-0.20;100.00;102542.75;5037167;28;20041;-72
2023/02/11 06:24:29;;;;;;;32.05;22.05;;;;;;;-0.23;100.00;102543.97;5037268;28;20033;-72
2023/02/11 06:26:55;;;;;;;33.00;22.85;;;;;;;-0.23;100.00;102548.56;5033222;28;20525;-72
2023/02/11 06:29:20;;;;;;;32.92;22.60;;;;;;;-0.25;100.00;102548.75;5031986;28;20034;-73
2023/02/11 06:31:46;;;;;;;33.30;23.38;;;;;;;-0.29;100.00;102541.06;5016961;28;20030;-72
2023/02/11 06:34:11;;;;;;;33.63;22.75;;;;;;;-0.24;100.00;102549.59;5036953;28;20030;-72
2023/02/11 06:36:40;;;;;;;34.03;22.63;;;;;;;-0.27;100.00;102547.22;4989539;28;20052;-72
2023/02/11 06:39:05;;;;;;;34.40;22.88;;;;;;;-0.33;100.00;102551.50;5020231;28;20049;-72
2023/02/11 06:41:31;;;;;;;32.63;22.13;;;;;;;-0.31;100.00;102554.88;5008049;28;20028;-72
2023/02/11 06:43:56;;;;;;;34.10;23.20;;;;;;;-0.31;100.00;102554.88;5020114;28;20041;-72
2023/02/11 06:46:22;;;;;;;33.53;22.45;;;;;;;-0.32;100.00;102552.34;5017447;28;20033;-72
2023/02/11 06:48:47;;;;;;;34.05;22.48;;;;;;;-0.34;100.00;102552.50;5015019;28;20070;-72
2023/02/11 06:51:13;;;;;;;32.80;21.17;;;;;;;-0.32;100.00;102563.28;5016722;28;20033;-72
2023/02/11 06:53:43;;;;;;;28.85;21.73;;;;;;;-0.31;100.00;102551.31;5029928;28;20033;-72
2023/02/11 06:56:11;;;;;;;32.15;23.02;;;;;;;-0.32;100.00;102553.19;5007650;28;20025;-72
2023/02/11 06:58:37;;;;;;;34.70;23.08;;;;;;;-0.32;100.00;102558.66;5009669;28;20474;-72
2023/02/11 07:01:06;;;;;;;36.17;23.42;;;;;;;-0.30;100.00;102561.22;5025216;28;20063;-72
2023/02/11 07:03:34;;;;;;;34.33;23.15;;;;;;;-0.32;100.00;102560.53;5033579;28;20078;-72
2023/02/11 07:06:00;;;;;;;33.03;22.58;;;;;;;-0.30;100.00;102559.34;5020459;28;20414;-72
2023/02/11 07:08:26;;;;;;;35.72;23.67;;;;;;;-0.33;100.00;102561.56;5019993;28;20033;-72
2023/02/11 07:10:51;;;;;;;33.60;23.60;;;;;;;-0.34;100.00;102557.13;5020172;28;20040;-72
2023/02/11 07:13:17;;;;;;;36.70;24.58;;;;;;;-0.31;100.00;102549.44;5045778;28;20034;-72
2023/02/11 07:15:42;;;;;;;35.00;24.17;;;;;;;-0.29;100.00;102550.13;5017797;28;20029;-72
2023/02/11 07:18:07;;;;;;;38.67;25.30;;;;;;;-0.29;100.00;102544.66;5047124;28;20026;-72
2023/02/11 07:20:33;;;;;;;40.95;26.52;;;;;;;-0.29;100.00;102544.66;5036338;28;20032;-73
2023/02/11 07:22:58;;;;;;;39.90;26.30;;;;;;;-0.25;100.00;102543.31;5036182;28;20600;-72
2023/02/11 07:25:24;;;;;;;39.78;26.23;;;;;;;-0.28;100.00;102551.84;5034238;28;20030;-73
2023/02/11 07:27:50;;;;;;;37.47;25.55;;;;;;;-0.28;100.00;102553.69;5030144;28;20079;-72
2023/02/11 07:30:15;;;;;;;38.60;26.27;;;;;;;-0.28;100.00;102556.44;5019085;28;20022;-72
2023/02/11 07:32:41;;;;;;;37.88;25.58;;;;;;;-0.27;100.00;102561.72;5008636;28;20028;-72
2023/02/11 07:35:06;;;;;;;36.20;25.13;;;;;;;-0.27;100.00;102560.88;5032644;28;20029;-72
2023/02/11 07:37:33;;;;;;;36.78;25.40;;;;;;;-0.25;100.00;102564.31;5020649;28;20033;-72
2023/02/11 07:39:58;;;;;;;36.85;25.00;;;;;;;-0.30;100.00;102573.00;5023054;28;20168;-72
2023/02/11 07:42:24;;;;;;;35.80;24.98;;;;;;;-0.26;100.00;102579.81;5019789;28;20026;-72
2023/02/11 07:44:49;;;;;;;35.63;26.15;;;;;;;-0.26;100.00;102577.06;5014913;28;20070;-73
2023/02/11 07:47:15;;;;;;;36.90;26.90;;;;;;;-0.19;100.00;102584.59;5028459;28;20028;-72
2023/02/11 07:49:40;;;;;;;37.75;25.75;;;;;;;-0.20;100.00;102588.34;5002420;28;20026;-72
2023/02/11 07:52:06;;;;;;;41.35;26.23;;;;;;;-0.20;100.00;102588.34;5044047;28;20437;-72
2023/02/11 07:54:31;;;;;;;35.65;24.52;;;;;;;-0.18;100.00;102586.31;5033694;28;20036;-72
2023/02/11 07:56:57;;;;;;;36.53;25.52;;;;;;;-0.13;100.00;102586.63;5035582;28;20029;-73
2023/02/11 07:59:23;;;;;;;36.10;25.30;;;;;;;-0.11;100.00;102579.09;5035229;28;20041;-72
2023/02/11 08:01:50;;;;;;;35.97;25.05;;;;;;;-0.13;100.00;102578.44;5008651;28;20025;-72
2023/02/11 08:04:15;;;;;;;35.38;25.20;;;;;;;-0.09;100.00;102585.25;5035114;28;20469;-72
2023/02/11 08:06:41;;;;;;;31.67;23.63;;;;;;;-0.07;100.00;102594.13;5054298;28;20053;-72
2023/02/11 08:09:08;;;;;;;33.58;24.20;;;;;;;-0.02;100.00;102591.75;5038420;28;20033;-72
2023/02/11 08:11:34;;;;;;;37.10;23.83;;;;;;;-0.01;100.00;102597.03;4995733;28;20071;-72
2023/02/11 08:13:59;;;;;;;35.92;24.30;;;;;;;0.00;100.00;102592.44;5038449;28;20033;-73
2023/02/11 08:16:29;;;;;;;38.67;25.40;;;;;;;0.04;100.00;102590.19;5022063;28;20047;-72
2023/02/11 08:18:56;;;;;;;41.85;25.77;;;;;;;0.07;100.00;102585.22;5039704;28;20539;-73
2023/02/11 08:21:22;;;;;;;41.53;27.25;;;;;;;0.09;100.00;102596.84;5034986;28;20422;-73
2023/02/11 08:23:48;;;;;;;46.53;27.27;;;;;;;0.10;100.00;102593.06;5034904;28;20038;-73
2023/02/11 08:26:22;;;;;;;44.00;26.08;;;;;;;0.15;100.00;102596.16;5024573;28;20112;-73
2023/02/11 08:28:49;;;;;;;45.67;28.02;;;;;;;0.21;100.00;102591.88;5018138;28;20065;-73
2023/02/11 08:31:19;;;;;;;41.70;27.35;;;;;;;0.24;100.00;102593.41;5018234;28;20048;-73
2023/02/11 08:33:45;;;;;;;42.53;27.45;;;;;;;0.27;100.00;102602.09;5035551;28;20036;-73
2023/02/11 08:36:18;;;;;;;40.40;25.73;;;;;;;0.32;100.00;102590.66;5010367;28;20397;-73
2023/02/11 08:38:44;;;;;;;41.60;26.00;;;;;;;0.37;100.00;102593.72;5010512;28;20043;-73
2023/02/11 08:41:09;;;;;;;42.00;25.80;;;;;;;0.41;100.00;102593.16;5031462;28;20022;-73
2023/02/11 08:43:35;;;;;;;38.50;24.67;;;;;;;0.48;100.00;102590.59;5047754;28;20553;-73
2023/02/11 08:46:01;;;;;;;35.38;23.60;;;;;;;0.53;100.00;102595.50;5010577;28;20037;-73
2023/02/11 08:48:27;;;;;;;36.03;24.08;;;;;;;0.59;100.00;102590.22;5031274;28;20033;-73
2023/02/11 08:50:54;;;;;;;35.05;23.65;;;;;;;0.66;100.00;102584.88;5046851;28;20385;-72
2023/02/11 08:53:19;;;;;;;33.63;23.17;;;;;;;0.74;100.00;102582.09;5017696;28;20026;-66
2023/02/11 08:55:51;;;;;;;32.45;23.83;;;;;;;0.82;100.00;102595.75;5045361;28;20086;-73
2023/02/11 08:58:17;;;;;;;32.22;22.65;;;;;;;0.89;100.00;102585.81;5021592;28;20064;-73
2023/02/11 09:00:44;;;;;;;32.72;22.67;;;;;;;0.99;100.00;102585.56;4991283;28;20039;-68
2023/02/11 09:03:11;;;;;;;31.65;23.33;;;;;;;1.08;100.00;102594.56;5001490;28;20038;-73
2023/02/11 09:05:45;;;;;;;31.15;22.58;;;;;;;1.18;100.00;102595.19;5004394;28;20079;-72
2023/02/11 09:08:11;;;;;;;32.22;22.17;;;;;;;1.26;100.00;102591.56;5001310;28;20029;-73
2023/02/11 09:10:36;;;;;;;31.73;23.45;;;;;;;1.35;100.00;102601.41;5038516;28;20036;-73
2023/02/11 09:13:02;;;;;;;31.27;22.50;;;;;;;1.45;100.00;102596.56;5041413;28;20018;-74
2023/02/11 09:15:27;;;;;;;29.50;21.88;;;;;;;1.53;100.00;102591.03;5027938;28;20033;-73
2023/02/11 09:17:53;;;;;;;32.00;23.67;;;;;;;1.64;100.00;102594.34;5017467;28;20034;-73
2023/02/11 09:20:19;;;;;;;29.98;22.83;;;;;;;1.72;100.00;102597.84;5017777;28;20399;-73
2023/02/11 09:22:44;;;;;;;33.75;24.65;;;;;;;1.82;100.00;102592.13;5045481;28;20125;-66
2023/02/11 09:25:10;;;;;;;196.02;32.05;;;;;;;1.96;100.00;102594.06;5017662;28;20116;-83
2023/02/11 09:27:39;;;;;;;220.23;32.17;;;;;;;2.06;100.00;102587.44;4985140;28;20033;-85
2023/02/11 09:30:05;;;;;;;172.13;30.88;;;;;;;2.18;100.00;102600.53;4984922;28;20060;-81
2023/02/11 09:32:30;;;;;;;125.90;28.58;;;;;;;2.29;100.00;102607.44;5008299;28;20033;-81
2023/02/11 09:34:56;;;;;;;93.55;29.00;;;;;;;2.38;100.00;102597.22;5020621;28;20044;-73
2023/02/11 09:37:21;;;;;;;87.50;27.10;;;;;;;2.47;100.00;102596.94;5016876;28;20029;-81
2023/02/11 09:39:47;;;;;;;92.18;25.88;;;;;;;2.59;100.00;102601.94;5017211;28;20058;-83
2023/02/11 09:42:47;;;;;;;77.88;25.50;;;;;;;2.68;100.00;102603.56;5007838;28;20028;-83
2023/02/11 09:45:18;;;;;;;59.47;25.42;;;;;;;2.80;100.00;102593.78;5028621;28;20067;-74
2023/02/11 09:48:11;;;;;;;58.97;26.50;;;;;;;2.93;100.00;102595.03;5009124;28;20033;-74
2023/02/11 09:50:43;;;;;;;47.58;24.95;;;;;;;3.03;100.00;102595.53;5033487;28;20379;-83
2023/02/11 09:53:25;;;;;;;49.53;25.77;;;;;;;3.15;100.00;102594.00;5030602;28;20041;-82
2023/02/11 09:56:14;;;;;;;46.90;24.52;;;;;;;3.27;100.00;102595.19;5001268;28;20124;-82
2023/02/11 09:58:41;;;;;;;50.60;23.75;;;;;;;3.39;100.00;102592.78;5038765;28;20095;-82
2023/02/11 10:01:21;;;;;;;47.20;26.63;;;;;;;3.51;100.00;102593.09;5020504;28;20021;-84
2023/02/11 10:04:24;;;;;;;48.72;29.65;;;;;;;3.61;100.00;102588.13;5051751;28;20436;-74
2023/02/11 10:06:55;;;;;;;46.88;28.83;;;;;;;3.74;100.00;102588.25;5042917;28;20111;-84
2023/02/11 10:09:36;;;;;;;39.63;27.25;;;;;;;3.88;100.00;102588.38;5037405;28;20066;-73
2023/02/11 10:12:39;;;;;;;38.00;24.90;;;;;;;4.02;100.00;102596.53;5051445;28;20059;-73
2023/02/11 10:15:08;;;;;;;32.40;24.35;;;;;;;4.16;100.00;102580.97;5037405;28;20124;-73
2023/02/11 10:18:11;;;;;;;38.55;24.45;;;;;;;4.31;100.00;102582.75;5035344;28;20029;-83
2023/02/11 10:20:42;;;;;;;37.53;26.55;;;;;;;4.46;100.00;102576.09;5035891;28;20092;-74
2023/02/11 10:23:14;;;;;;;42.75;28.70;;;;;;;4.64;100.00;102583.81;5034844;28;20063;-74
2023/02/11 10:25:43;;;;;;;47.83;33.38;;;;;;;4.78;100.00;102578.38;5018353;28;20677;-74
2023/02/11 10:28:17;;;;;;;52.53;34.88;;;;;;;4.97;100.00;102585.00;5019500;28;20112;-74
2023/02/11 10:30:58;;;;;;;54.65;37.55;;;;;;;5.12;100.00;102585.69;5004763;28;20034;-74
2023/02/11 10:33:33;;;;;;;52.45;36.67;;;;;;;5.29;100.00;102586.16;5035078;28;20033;-73
2023/02/11 10:35:59;;;;;;;56.42;39.85;;;;;;;5.48;100.00;102596.38;5057016;28;20033;-74
2023/02/11 10:38:24;;;;;;;57.55;39.72;;;;;;;5.63;100.00;102603.59;5039995;28;20039;-74
2023/02/11 10:40:50;;;;;;;68.28;45.20;;;;;;;5.78;100.00;102599.59;5023442;28;20052;-74
2023/02/11 10:43:16;;;;;;;60.20;40.20;;;;;;;5.90;100.00;102590.69;5056904;28;20025;-75
2023/02/11 10:45:49;;;;;;;57.40;38.92;;;;;;;6.03;100.00;102591.56;5014377;28;20063;-74
2023/02/11 10:48:38;;;;;;;59.40;39.53;;;;;;;6.19;100.00;102592.22;5020602;28;20037;-74
2023/02/11 10:51:09;;;;;;;59.55;40.40;;;;;;;6.33;100.00;102591.13;5043313;28;20478;-74
2023/02/11 10:53:35;;;;;;;61.47;42.60;;;;;;;6.48;100.00;102586.19;5047435;28;20037;-74
2023/02/11 10:56:00;;;;;;;57.10;40.22;;;;;;;6.63;100.00;102585.97;5026022;28;20065;-74
2023/02/11 10:58:39;;;;;;;59.95;40.05;;;;;;;6.77;100.00;102589.53;5036836;28;20030;-74
2023/02/11 11:01:05;;;;;;;59.85;41.30;;;;;;;6.90;100.00;102578.41;5020678;28;20057;-74
2023/02/11 11:03:35;;;;;;;58.42;41.33;;;;;;;7.04;100.00;102581.94;4987729;28;20501;-74
2023/02/11 11:06:01;;;;;;;56.55;38.95;;;;;;;7.18;100.00;102574.44;5035795;28;20028;-74
2023/02/11 11:08:41;;;;;;;56.20;39.08;;;;;;;7.30;100.00;102569.94;5007027;28;20124;-75
2023/02/11 11:11:10;;;;;;;57.80;39.17;;;;;;;7.42;100.00;102570.06;5043705;28;20108;-75
2023/02/11 11:13:39;;;;;;;56.28;38.38;;;;;;;7.54;100.00;102575.72;5036279;28;20030;-75
2023/02/11 11:16:16;;;;;;;54.22;38.40;;;;;;;7.67;100.00;102567.31;5039649;28;20033;-75
2023/02/11 11:19:05;;;;;;;56.85;36.60;;;;;;;7.83;100.00;102569.53;5023961;28;20029;-75